Time;durP1;ratioP1;P1;durP2;ratioP2;P2;SDS_P1;SDS_P2;PMS_P1;PMS_P2;Temp;Humidity;BMP_temperature;BMP_pressure;BME280_temperature;BME280_humidity;BME280_pressure;Samples;Min_cycle;Max_cycle;Signal;HPM_P1;HPM_P2
2022/06/22 00:04:27;;;;;;;8.32;5.55;;;;;;;;;;5111442;27;20418;-74
2022/06/22 00:06:58;;;;;;;8.32;4.82;;;;;;;;;;5111601;28;20055;-73
2022/06/22 00:09:24;;;;;;;7.30;4.78;;;;;;;;;;5111123;28;20028;-73
2022/06/22 00:12:56;;;;;;;8.18;4.38;;;;;;;;;;5110870;27;20393;-74
2022/06/22 00:15:34;;;;;;;7.65;4.95;;;;;;;;;;5111274;28;20093;-73
2022/06/22 00:18:02;;;;;;;8.20;5.00;;;;;;;;;;5110905;28;20069;-73
2022/06/22 00:20:30;;;;;;;8.68;5.45;;;;;;;;;;5111204;28;20095;-74
2022/06/22 00:22:56;;;;;;;8.57;5.03;;;;;;;;;;5111291;28;20034;-74
2022/06/22 00:25:25;;;;;;;8.60;5.57;;;;;;;;;;5110925;28;20460;-74
2022/06/22 00:27:51;;;;;;;9.23;6.30;;;;;;;;;;5110967;28;20027;-73
2022/06/22 00:36:09;;;;;;;8.95;5.75;;;;;;;;;;5111470;27;20393;-74
2022/06/22 00:38:35;;;;;;;9.32;6.15;;;;;;;;;;5111262;28;20024;-74
2022/06/22 00:47:27;;;;;;;9.65;5.47;;;;;;;;;;5111127;27;20396;-74
2022/06/22 00:49:55;;;;;;;7.97;4.93;;;;;;;;;;5127070;28;20032;-74
2022/06/22 00:52:25;;;;;;;7.82;4.70;;;;;;;;;;5111152;28;20028;-74
2022/06/22 00:54:51;;;;;;;8.63;4.82;;;;;;;;;;5110891;28;20052;-73
2022/06/22 00:57:35;;;;;;;10.45;6.57;;;;;;;;;;5111300;27;20389;-74
2022/06/22 01:01:21;;;;;;;9.43;6.28;;;;;;;;;;5111222;27;20920;-73
2022/06/22 01:03:56;;;;;;;9.25;5.85;;;;;;;;;;5111549;28;20043;-74
2022/06/22 01:06:33;;;;;;;9.13;5.88;;;;;;;;;;5111208;28;20104;-74
2022/06/22 01:09:03;;;;;;;7.43;5.50;;;;;;;;;;5110698;28;20043;-74
2022/06/22 01:16:45;;;;;;;12.07;6.55;;;;;;;;;;5111909;27;20768;-73
2022/06/22 01:19:40;;;;;;;9.07;6.43;;;;;;;;;;5112027;27;20453;-74
2022/06/22 01:22:19;;;;;;;10.18;5.78;;;;;;;;;;5111034;28;20027;-74
2022/06/22 01:26:43;;;;;;;10.18;5.65;;;;;;;;;;5111743;27;20392;-74
2022/06/22 01:29:14;;;;;;;8.73;5.50;;;;;;;;;;5110774;28;20024;-73
2022/06/22 01:31:45;;;;;;;10.55;5.88;;;;;;;;;;5111166;28;20497;-73
2022/06/22 01:34:16;;;;;;;9.05;5.57;;;;;;;;;;5111017;28;20028;-73
2022/06/22 01:38:24;;;;;;;13.05;5.85;;;;;;;;;;5111657;27;20841;-73
2022/06/22 01:40:58;;;;;;;12.13;5.55;;;;;;;;;;5109199;28;20036;-73
2022/06/22 01:43:31;;;;;;;8.10;5.38;;;;;;;;;;5109504;28;20020;-73
2022/06/22 01:46:07;;;;;;;7.78;5.32;;;;;;;;;;5111414;28;20035;-73
2022/06/22 01:48:43;;;;;;;7.75;4.50;;;;;;;;;;5111072;28;20418;-73
2022/06/22 01:52:14;;;;;;;9.45;5.30;;;;;;;;;;5112022;27;20392;-73
2022/06/22 01:55:52;;;;;;;10.57;6.15;;;;;;;;;;5173770;27;20232;-73
2022/06/22 01:58:18;;;;;;;8.70;6.05;;;;;;;;;;5152097;27;20027;-73
2022/06/22 02:04:25;;;;;;;8.80;5.47;;;;;;;;;;5111215;27;20846;-73
2022/06/22 02:12:38;;;;;;;7.63;4.75;;;;;;;;;;5110874;27;20423;-73
2022/06/22 02:15:27;;;;;;;10.38;5.57;;;;;;;;;;5111337;27;20422;-74
2022/06/22 02:17:54;;;;;;;8.80;5.00;;;;;;;;;;5110796;28;20028;-73
2022/06/22 02:20:26;;;;;;;8.30;4.80;;;;;;;;;;5111380;28;20030;-74
2022/06/22 02:22:56;;;;;;;9.05;5.35;;;;;;;;;;5111617;28;20020;-73
2022/06/22 02:27:56;;;;;;;8.57;5.25;;;;;;;;;;5111748;27;20422;-74
2022/06/22 02:30:22;;;;;;;9.95;5.65;;;;;;;;;;5111221;28;20400;-74
2022/06/22 02:32:48;;;;;;;10.38;5.43;;;;;;;;;;5110819;28;20024;-74
2022/06/22 02:37:29;;;;;;;9.13;4.70;;;;;;;;;;5111933;27;20422;-74
2022/06/22 02:39:57;;;;;;;10.68;4.85;;;;;;;;;;5110816;28;20089;-73
2022/06/22 02:45:09;;;;;;;9.55;5.75;;;;;;;;;;5111144;28;20027;-73
2022/06/22 02:47:59;;;;;;;7.25;5.10;;;;;;;;;;5111608;27;20538;-73
2022/06/22 02:50:39;;;;;;;9.18;5.43;;;;;;;;;;5111191;28;20456;-74
2022/06/22 02:53:07;;;;;;;7.60;4.95;;;;;;;;;;5110815;28;20498;-74
2022/06/22 02:56:51;;;;;;;8.75;4.75;;;;;;;;;;5111629;27;20465;-73
2022/06/22 02:59:17;;;;;;;9.52;5.03;;;;;;;;;;5111159;28;20065;-73
2022/06/22 03:01:43;;;;;;;9.65;6.18;;;;;;;;;;5110691;28;20024;-73
2022/06/22 03:04:14;;;;;;;9.50;6.05;;;;;;;;;;5111123;28;20422;-74
2022/06/22 03:12:47;;;;;;;14.88;7.22;;;;;;;;;;5070800;28;20391;-73
2022/06/22 03:15:15;;;;;;;11.98;7.78;;;;;;;;;;5070464;28;20024;-74
2022/06/22 03:27:48;;;;;;;13.20;7.57;;;;;;;;;;5111051;27;20427;-73
2022/06/22 03:30:17;;;;;;;17.25;9.32;;;;;;;;;;5111270;28;20027;-74
2022/06/22 03:32:47;;;;;;;16.13;8.73;;;;;;;;;;5111236;28;20031;-74
2022/06/22 03:36:39;;;;;;;16.85;8.45;;;;;;;;;;5111039;27;20426;-73
2022/06/22 03:40:21;;;;;;;12.68;7.55;;;;;;;;;;5112171;27;20400;-73
2022/06/22 03:44:31;;;;;;;18.85;8.40;;;;;;;;;;5110928;27;20422;-73
2022/06/22 03:46:59;;;;;;;18.95;8.57;;;;;;;;;;5048782;28;20036;-73
2022/06/22 03:54:12;;;;;;;10.02;6.35;;;;;;;;;;5194500;27;20464;-73
2022/06/22 03:56:40;;;;;;;10.52;5.90;;;;;;;;;;5172944;27;20022;-73
2022/06/22 03:59:55;;;;;;;8.20;5.95;;;;;;;;;;5051180;28;20412;-73
2022/06/22 04:04:31;;;;;;;9.25;5.22;;;;;;;;;;5111237;27;20393;-73
2022/06/22 04:07:55;;;;;;;7.75;5.00;;;;;;;;;;5111511;27;20400;-73
2022/06/22 04:11:55;;;;;;;6.70;4.45;;;;;;;;;;5111011;27;20393;-72
2022/06/22 04:18:45;;;;;;;7.75;4.60;;;;;;;;;;5110976;27;20109;-72
2022/06/22 04:21:23;;;;;;;6.80;4.50;;;;;;;;;;5111625;27;20422;-73
2022/06/22 04:23:55;;;;;;;7.00;4.60;;;;;;;;;;5111347;28;20077;-73
2022/06/22 04:26:33;;;;;;;8.93;5.22;;;;;;;;;;5111856;27;20400;-73
2022/06/22 04:29:05;;;;;;;10.63;5.68;;;;;;;;;;5111560;28;20089;-73
2022/06/22 04:34:45;;;;;;;9.43;5.22;;;;;;;;;;5112192;27;20550;-73
2022/06/22 04:37:20;;;;;;;8.00;5.30;;;;;;;;;;5111350;28;20035;-73
2022/06/22 04:39:48;;;;;;;9.68;5.28;;;;;;;;;;5110928;28;20026;-73
2022/06/22 04:42:55;;;;;;;8.85;5.18;;;;;;;;;;5111453;27;20428;-72
2022/06/22 04:45:32;;;;;;;11.57;5.57;;;;;;;;;;5110862;28;20396;-72
2022/06/22 04:50:00;;;;;;;9.90;5.00;;;;;;;;;;5112051;27;20388;-73
2022/06/22 04:52:38;;;;;;;10.38;5.90;;;;;;;;;;5111374;28;20093;-75
2022/06/22 04:55:05;;;;;;;8.52;5.88;;;;;;;;;;5111280;28;20038;-75
2022/06/22 04:57:35;;;;;;;9.48;5.75;;;;;;;;;;5111239;28;20095;-75
2022/06/22 05:00:04;;;;;;;7.70;5.90;;;;;;;;;;5110773;28;20023;-74
2022/06/22 05:03:10;;;;;;;8.43;4.85;;;;;;;;;;5111649;27;20450;-74
2022/06/22 05:07:19;;;;;;;7.53;5.63;;;;;;;;;;5111145;27;20446;-73
2022/06/22 05:10:14;;;;;;;7.60;4.80;;;;;;;;;;5111337;27;20839;-75
2022/06/22 05:12:47;;;;;;;7.03;4.88;;;;;;;;;;5111345;28;20194;-75
2022/06/22 05:15:21;;;;;;;8.23;5.18;;;;;;;;;;5110751;28;20020;-74
2022/06/22 05:18:58;;;;;;;7.13;4.20;;;;;;;;;;5105154;27;1438197;-75
2022/06/22 05:21:42;;;;;;;7.13;4.32;;;;;;;;;;5131261;28;20062;-75
2022/06/22 05:26:06;;;;;;;7.55;4.65;;;;;;;;;;5112713;27;20404;-75
2022/06/22 05:28:33;;;;;;;11.25;4.70;;;;;;;;;;5110982;28;20032;-74
2022/06/22 05:33:49;;;;;;;8.30;5.05;;;;;;;;;;5111388;27;20718;-71
2022/06/22 05:36:17;;;;;;;8.57;4.63;;;;;;;;;;5110945;28;20030;-73
2022/06/22 05:38:45;;;;;;;5.82;4.32;;;;;;;;;;5109285;28;20024;-72
2022/06/22 05:43:03;;;;;;;7.47;4.38;;;;;;;;;;5115210;27;20396;-73
2022/06/22 05:48:00;;;;;;;7.75;4.60;;;;;;;;;;5103559;27;20633;-71
2022/06/22 05:51:04;;;;;;;9.65;4.85;;;;;;;;;;5105941;27;20401;-71
2022/06/22 05:53:30;;;;;;;8.38;4.22;;;;;;;;;;5107514;28;20037;-73
2022/06/22 05:55:59;;;;;;;7.10;4.55;;;;;;;;;;5103072;28;20472;-74
2022/06/22 05:58:29;;;;;;;8.63;5.28;;;;;;;;;;5090658;28;20024;-73
2022/06/22 06:00:56;;;;;;;10.98;5.43;;;;;;;;;;5090477;28;20024;-72
2022/06/22 06:03:45;;;;;;;9.15;5.28;;;;;;;;;;5094603;28;20019;-72
2022/06/22 06:08:21;;;;;;;7.90;4.47;;;;;;;;;;5103344;27;20386;-73
2022/06/22 06:14:38;;;;;;;6.70;4.05;;;;;;;;;;5062696;28;20431;-72
2022/06/22 06:17:12;;;;;;;6.03;4.18;;;;;;;;;;5065974;28;20104;-75
2022/06/22 06:20:38;;;;;;;7.60;4.78;;;;;;;;;;5110731;27;20381;-70
2022/06/22 06:23:13;;;;;;;7.97;4.50;;;;;;;;;;5106664;28;20124;-73
2022/06/22 06:28:35;;;;;;;9.45;5.15;;;;;;;;;;5105342;28;20122;-70
2022/06/22 06:31:06;;;;;;;12.43;4.82;;;;;;;;;;5108278;28;20024;-71
2022/06/22 06:33:34;;;;;;;8.40;4.70;;;;;;;;;;5110092;28;20019;-70
2022/06/22 06:36:06;;;;;;;13.45;4.68;;;;;;;;;;5124055;28;20062;-69
2022/06/22 06:38:35;;;;;;;9.55;4.90;;;;;;;;;;5128460;28;20030;-68
2022/06/22 06:41:09;;;;;;;7.32;4.65;;;;;;;;;;5127180;28;20556;-73
2022/06/22 06:43:53;;;;;;;7.75;4.50;;;;;;;;;;5128507;28;20526;-73
2022/06/22 06:46:32;;;;;;;7.60;5.13;;;;;;;;;;5123943;28;20410;-72
2022/06/22 06:49:10;;;;;;;7.22;4.95;;;;;;;;;;5088068;28;20171;-73
2022/06/22 06:51:38;;;;;;;7.88;4.95;;;;;;;;;;5103095;28;20426;-70
2022/06/22 06:54:07;;;;;;;8.88;5.32;;;;;;;;;;5089013;28;20481;-72
2022/06/22 06:57:02;;;;;;;7.28;4.88;;;;;;;;;;5110448;28;20411;-73
2022/06/22 06:59:30;;;;;;;7.00;4.60;;;;;;;;;;5101379;28;20040;-73
2022/06/22 07:02:02;;;;;;;8.05;4.97;;;;;;;;;;5093643;28;20049;-71
2022/06/22 07:04:30;;;;;;;8.75;5.68;;;;;;;;;;5109243;28;20055;-72
2022/06/22 07:06:59;;;;;;;10.65;5.50;;;;;;;;;;5111597;28;20099;-73
2022/06/22 07:09:31;;;;;;;7.40;5.18;;;;;;;;;;5128890;27;20037;-74
2022/06/22 07:12:17;;;;;;;8.97;5.00;;;;;;;;;;5129772;28;20495;-70
2022/06/22 07:14:45;;;;;;;8.82;4.90;;;;;;;;;;5108978;28;20024;-72
2022/06/22 07:19:16;;;;;;;9.95;4.68;;;;;;;;;;5108849;27;20389;-71
2022/06/22 07:21:42;;;;;;;;;;;;;;;;;;5110015;28;20054;-70
2022/06/22 07:24:14;;;;;;;8.95;5.28;;;;;;;;;;5109823;28;19940;-71
2022/06/22 07:26:53;;;;;;;8.25;4.20;;;;;;;;;;5110007;28;20101;-70
2022/06/22 07:29:26;;;;;;;9.57;4.55;;;;;;;;;;5109110;28;20115;-72
2022/06/22 07:32:12;;;;;;;6.65;4.38;;;;;;;;;;5109300;28;20357;-71
2022/06/22 07:34:40;;;;;;;6.85;4.18;;;;;;;;;;5107507;28;20032;-70
2022/06/22 07:37:16;;;;;;;6.93;4.20;;;;;;;;;;5108488;28;20027;-70
2022/06/22 07:40:03;;;;;;;8.50;4.70;;;;;;;;;;5108225;28;20028;-71
2022/06/22 07:42:29;;;;;;;8.63;4.43;;;;;;;;;;5092358;28;20032;-73
2022/06/22 07:44:55;;;;;;;7.25;4.63;;;;;;;;;;5108476;28;20073;-72
2022/06/22 07:47:42;;;;;;;8.02;4.10;;;;;;;;;;5109283;28;20027;-72
2022/06/22 07:50:21;;;;;;;6.70;3.90;;;;;;;;;;5108668;28;20415;-71
2022/06/22 07:52:49;;;;;;;9.77;3.72;;;;;;;;;;5109446;28;20023;-72
2022/06/22 07:55:34;;;;;;;7.10;4.15;;;;;;;;;;5109393;28;20058;-72
2022/06/22 07:58:12;;;;;;;5.90;3.95;;;;;;;;;;5107364;28;20050;-71
2022/06/22 08:00:40;;;;;;;6.70;3.88;;;;;;;;;;5107343;28;20489;-71
2022/06/22 08:03:06;;;;;;;6.90;4.22;;;;;;;;;;5106717;28;20030;-71
2022/06/22 08:05:35;;;;;;;7.57;4.07;;;;;;;;;;5107261;28;20020;-72
2022/06/22 08:08:11;;;;;;;8.77;4.45;;;;;;;;;;5107285;28;20024;-71
2022/06/22 08:10:43;;;;;;;10.10;4.45;;;;;;;;;;5107242;28;20031;-72
2022/06/22 08:13:12;;;;;;;11.35;4.25;;;;;;;;;;5105200;28;20055;-72
2022/06/22 08:15:40;;;;;;;6.43;4.05;;;;;;;;;;5105775;28;20027;-73
2022/06/22 08:18:08;;;;;;;6.78;3.47;;;;;;;;;;5106269;28;20051;-73
2022/06/22 08:20:35;;;;;;;9.52;4.57;;;;;;;;;;5094874;28;20070;-71
2022/06/22 08:23:04;;;;;;;8.30;4.43;;;;;;;;;;5098030;28;20114;-71
2022/06/22 08:25:31;;;;;;;9.13;5.05;;;;;;;;;;5088135;28;20431;-75
2022/06/22 08:27:58;;;;;;;7.95;4.80;;;;;;;;;;5109623;28;20089;-71
2022/06/22 08:30:24;;;;;;;7.05;4.00;;;;;;;;;;5107008;28;20388;-73
2022/06/22 08:32:59;;;;;;;7.97;3.75;;;;;;;;;;5095652;28;20036;-73
2022/06/22 08:35:27;;;;;;;7.85;4.55;;;;;;;;;;5089321;28;20024;-71
2022/06/22 08:38:07;;;;;;;9.75;5.18;;;;;;;;;;5094600;28;20066;-72
2022/06/22 08:40:52;;;;;;;10.45;4.50;;;;;;;;;;5077414;28;20043;-73
2022/06/22 08:43:18;;;;;;;9.23;4.18;;;;;;;;;;5074759;28;20028;-72
2022/06/22 08:46:22;;;;;;;7.32;4.38;;;;;;;;;;5073932;28;20024;-72
2022/06/22 08:49:06;;;;;;;6.43;4.20;;;;;;;;;;5020081;28;20811;-73
2022/06/22 08:51:35;;;;;;;7.65;3.83;;;;;;;;;;5010685;28;20033;-73
2022/06/22 08:54:04;;;;;;;8.02;4.47;;;;;;;;;;5059622;28;20044;-71
2022/06/22 08:56:45;;;;;;;9.73;5.07;;;;;;;;;;5082823;28;20028;-71
2022/06/22 08:59:12;;;;;;;7.22;4.07;;;;;;;;;;5080581;28;20032;-72
2022/06/22 09:02:04;;;;;;;10.25;5.05;;;;;;;;;;5092158;28;20032;-71
2022/06/22 09:04:51;;;;;;;9.45;3.95;;;;;;;;;;5060062;28;20040;-72
2022/06/22 09:07:35;;;;;;;7.05;4.05;;;;;;;;;;5090795;28;20024;-71
2022/06/22 09:10:09;;;;;;;7.03;4.30;;;;;;;;;;5092532;28;20020;-71
2022/06/22 09:12:44;;;;;;;8.80;3.97;;;;;;;;;;5091771;28;20016;-71
2022/06/22 09:15:28;;;;;;;7.90;4.05;;;;;;;;;;5093134;28;20043;-70
2022/06/22 09:18:03;;;;;;;6.72;3.80;;;;;;;;;;5091993;28;20040;-69
2022/06/22 09:20:39;;;;;;;8.13;4.20;;;;;;;;;;5093496;28;20024;-71
2022/06/22 09:23:24;;;;;;;7.43;3.83;;;;;;;;;;5093713;28;20032;-70
2022/06/22 09:26:01;;;;;;;7.65;4.35;;;;;;;;;;5094667;28;20032;-70
2022/06/22 09:28:30;;;;;;;7.13;4.57;;;;;;;;;;5094258;28;20031;-72
2022/06/22 09:31:18;;;;;;;9.02;4.10;;;;;;;;;;5107558;28;20440;-68
2022/06/22 09:33:44;;;;;;;9.18;3.80;;;;;;;;;;5114410;28;20019;-72
2022/06/22 09:36:30;;;;;;;6.65;3.88;;;;;;;;;;5080651;28;20024;-72
2022/06/22 09:39:08;;;;;;;6.50;4.00;;;;;;;;;;5088011;28;20549;-71
2022/06/22 09:42:01;;;;;;;9.20;4.55;;;;;;;;;;5090281;28;20129;-71
2022/06/22 09:44:30;;;;;;;10.98;4.32;;;;;;;;;;5053498;28;20032;-71
2022/06/22 09:47:11;;;;;;;7.57;4.18;;;;;;;;;;5093153;28;20535;-72
2022/06/22 09:49:41;;;;;;;8.05;4.40;;;;;;;;;;5092257;28;20489;-72
2022/06/22 09:52:10;;;;;;;8.57;4.10;;;;;;;;;;5093647;28;20023;-72
2022/06/22 09:57:48;;;;;;;7.30;4.55;;;;;;;;;;5091224;28;20093;-73
2022/06/22 10:00:19;;;;;;;8.07;3.72;;;;;;;;;;5091597;28;20549;-72
2022/06/22 10:02:51;;;;;;;8.32;4.10;;;;;;;;;;5092762;28;20549;-71
2022/06/22 10:05:32;;;;;;;6.97;3.85;;;;;;;;;;5091309;28;20387;-73
2022/06/22 10:08:10;;;;;;;9.50;4.35;;;;;;;;;;5083157;28;20032;-72
2022/06/22 10:10:51;;;;;;;8.90;4.88;;;;;;;;;;5078321;28;20380;-72
2022/06/22 10:13:27;;;;;;;8.40;5.22;;;;;;;;;;5092803;28;20048;-71
2022/06/22 10:16:25;;;;;;;10.27;4.38;;;;;;;;;;5092871;28;20024;-71
2022/06/22 10:19:06;;;;;;;8.07;4.30;;;;;;;;;;5057063;28;20040;-71
2022/06/22 10:21:33;;;;;;;8.45;4.22;;;;;;;;;;5073323;28;20095;-73
2022/06/22 10:24:18;;;;;;;7.43;4.53;;;;;;;;;;5085347;28;20035;-72
2022/06/22 10:26:53;;;;;;;9.20;4.63;;;;;;;;;;5092353;28;20060;-71
2022/06/22 10:29:38;;;;;;;10.02;4.53;;;;;;;;;;5085363;28;20031;-74
2022/06/22 10:32:28;;;;;;;6.53;3.45;;;;;;;;;;5092134;28;20056;-75
2022/06/22 10:35:17;;;;;;;11.70;4.40;;;;;;;;;;5090203;28;20082;-74
2022/06/22 10:37:43;;;;;;;8.27;4.22;;;;;;;;;;5090260;28;20383;-75
2022/06/22 10:46:02;;;;;;;9.70;4.30;;;;;;;;;;5092612;28;20039;-71
2022/06/22 10:48:28;;;;;;;8.50;3.88;;;;;;;;;;5091964;28;20107;-71
2022/06/22 10:51:13;;;;;;;7.38;4.13;;;;;;;;;;5092775;28;20486;-73
2022/06/22 10:53:39;;;;;;;10.23;4.30;;;;;;;;;;5091208;28;20751;-73
2022/06/22 10:56:13;;;;;;;6.30;3.95;;;;;;;;;;5091353;28;20032;-72
2022/06/22 10:58:48;;;;;;;9.70;4.18;;;;;;;;;;5091527;28;20032;-74
2022/06/22 11:01:24;;;;;;;6.78;3.88;;;;;;;;;;5093301;28;20052;-75
2022/06/22 11:04:07;;;;;;;8.00;4.20;;;;;;;;;;5092628;28;20476;-71
2022/06/22 11:06:40;;;;;;;8.80;4.10;;;;;;;;;;5088758;28;20488;-72
2022/06/22 11:09:11;;;;;;;9.73;4.47;;;;;;;;;;5092842;28;20012;-75
2022/06/22 11:11:37;;;;;;;7.15;3.65;;;;;;;;;;5091908;28;20031;-74
2022/06/22 11:14:22;;;;;;;8.50;3.72;;;;;;;;;;5091516;28;20174;-76
2022/06/22 11:17:11;;;;;;;7.63;3.90;;;;;;;;;;5088591;28;20062;-75
2022/06/22 11:19:56;;;;;;;7.05;3.65;;;;;;;;;;5088634;28;20051;-74
2022/06/22 11:22:29;;;;;;;8.38;4.65;;;;;;;;;;5091199;28;20031;-73
2022/06/22 11:25:14;;;;;;;6.53;3.83;;;;;;;;;;5091487;28;20077;-72
2022/06/22 11:30:48;;;;;;;9.38;3.85;;;;;;;;;;5092440;28;20092;-74
2022/06/22 11:33:21;;;;;;;9.50;3.88;;;;;;;;;;5091865;28;20089;-78
2022/06/22 11:36:07;;;;;;;8.52;3.58;;;;;;;;;;5091796;28;20058;-73
2022/06/22 11:38:52;;;;;;;8.80;3.92;;;;;;;;;;5089812;28;20480;-71
2022/06/22 11:41:26;;;;;;;7.63;4.07;;;;;;;;;;5091711;28;20031;-70
2022/06/22 11:44:00;;;;;;;5.22;3.30;;;;;;;;;;5090984;28;20028;-74
2022/06/22 11:46:27;;;;;;;8.00;3.80;;;;;;;;;;5091580;28;20605;-71
2022/06/22 11:49:00;;;;;;;6.05;3.28;;;;;;;;;;5091001;28;20024;-73
2022/06/22 11:51:32;;;;;;;6.65;3.78;;;;;;;;;;5092831;28;20095;-75
2022/06/22 11:54:16;;;;;;;5.53;3.40;;;;;;;;;;5084502;28;20027;-76
2022/06/22 11:56:42;;;;;;;7.10;3.75;;;;;;;;;;5090832;28;20028;-74
2022/06/22 11:59:12;;;;;;;7.50;3.20;;;;;;;;;;5092877;28;20024;-75
2022/06/22 12:01:50;;;;;;;7.35;3.50;;;;;;;;;;5092441;28;20468;-73
2022/06/22 12:04:35;;;;;;;7.03;3.60;;;;;;;;;;5094162;28;20036;-79
2022/06/22 12:07:19;;;;;;;9.95;3.78;;;;;;;;;;5096582;28;20028;-74
2022/06/22 12:09:56;;;;;;;8.40;3.63;;;;;;;;;;5095254;28;20040;-76
2022/06/22 12:12:43;;;;;;;7.45;4.30;;;;;;;;;;5096856;28;20028;-77
2022/06/22 12:15:21;;;;;;;14.50;5.05;;;;;;;;;;5096879;28;20073;-74
2022/06/22 12:17:57;;;;;;;5.95;3.50;;;;;;;;;;5094817;28;20523;-73
2022/06/22 12:20:32;;;;;;;9.35;4.15;;;;;;;;;;5092939;28;20116;-72
2022/06/22 12:23:18;;;;;;;11.35;3.85;;;;;;;;;;5095719;28;20021;-73
2022/06/22 12:25:49;;;;;;;7.63;4.75;;;;;;;;;;5096295;28;20126;-73
2022/06/22 12:28:37;;;;;;;9.97;4.53;;;;;;;;;;5096264;28;20499;-72
2022/06/22 12:31:15;;;;;;;7.35;3.88;;;;;;;;;;5095861;28;20039;-74
2022/06/22 12:33:45;;;;;;;9.10;5.15;;;;;;;;;;5090389;28;20028;-76
2022/06/22 12:36:17;;;;;;;15.07;5.32;;;;;;;;;;5075025;28;20381;-75
2022/06/22 12:38:45;;;;;;;13.25;5.50;;;;;;;;;;5073589;28;20044;-75
2022/06/22 12:41:32;;;;;;;12.82;6.65;;;;;;;;;;5073986;28;20046;-75
2022/06/22 12:44:04;;;;;;;17.73;8.80;;;;;;;;;;5073616;28;20099;-75
2022/06/22 12:46:30;;;;;;;;;;;;;;;;;;5090473;28;20477;-75
2022/06/22 12:49:05;;;;;;;17.65;9.82;;;;;;;;;;5074025;28;19936;-74
2022/06/22 12:51:51;;;;;;;14.65;9.52;;;;;;;;;;5073800;28;20017;-75
2022/06/22 12:54:17;;;;;;;17.95;10.15;;;;;;;;;;5073655;28;20020;-74
2022/06/22 12:56:46;;;;;;;13.52;8.70;;;;;;;;;;5073482;28;20532;-74
2022/06/22 12:59:29;;;;;;;15.95;8.60;;;;;;;;;;5072912;28;20595;-74
2022/06/22 13:01:56;;;;;;;12.55;7.75;;;;;;;;;;5073530;28;20017;-74
2022/06/22 13:04:24;;;;;;;12.05;8.07;;;;;;;;;;5073547;28;20040;-74
2022/06/22 13:06:53;;;;;;;11.43;7.28;;;;;;;;;;5081976;28;20045;-74
2022/06/22 13:09:19;;;;;;;12.68;7.18;;;;;;;;;;5095599;28;20045;-74
2022/06/22 13:11:48;;;;;;;11.50;6.18;;;;;;;;;;5095270;28;20023;-75
2022/06/22 13:14:33;;;;;;;12.50;5.60;;;;;;;;;;5095079;28;20016;-75
2022/06/22 13:17:10;;;;;;;10.68;5.38;;;;;;;;;;5095025;28;20032;-75
2022/06/22 13:19:41;;;;;;;9.98;5.53;;;;;;;;;;5095075;28;20024;-75
2022/06/22 13:22:14;;;;;;;9.43;4.90;;;;;;;;;;5094050;28;20020;-76
2022/06/22 13:24:40;;;;;;;7.53;4.28;;;;;;;;;;5095626;28;20028;-75
2022/06/22 13:27:27;;;;;;;9.25;4.70;;;;;;;;;;5094883;28;20086;-75
2022/06/22 13:29:58;;;;;;;9.38;4.10;;;;;;;;;;5095410;28;20105;-76
2022/06/22 13:32:25;;;;;;;7.20;4.37;;;;;;;;;;5095272;28;20016;-75
2022/06/22 13:35:18;;;;;;;10.00;4.22;;;;;;;;;;5094725;28;20031;-74
2022/06/22 13:37:44;;;;;;;;;;;;;;;;;;5092673;28;20044;-74
2022/06/22 13:40:26;;;;;;;7.22;3.80;;;;;;;;;;5094524;28;19912;-74
2022/06/22 13:42:59;;;;;;;7.57;4.18;;;;;;;;;;5094948;28;20043;-74
2022/06/22 13:45:37;;;;;;;7.60;3.20;;;;;;;;;;5095299;28;20488;-74
2022/06/22 13:48:18;;;;;;;5.07;3.08;;;;;;;;;;5094350;28;20113;-75
2022/06/22 13:53:45;;;;;;;6.75;3.22;;;;;;;;;;5094795;28;20020;-76
2022/06/22 13:56:29;;;;;;;6.05;3.17;;;;;;;;;;5094692;28;20221;-75
2022/06/22 13:58:56;;;;;;;7.55;3.42;;;;;;;;;;5094502;28;20024;-74
2022/06/22 14:01:27;;;;;;;6.85;3.65;;;;;;;;;;5094162;28;20024;-74
2022/06/22 14:04:13;;;;;;;10.73;4.22;;;;;;;;;;5094543;28;20077;-74
2022/06/22 14:06:42;;;;;;;9.18;4.32;;;;;;;;;;5094566;28;20099;-75
2022/06/22 14:09:37;;;;;;;7.03;3.95;;;;;;;;;;5094046;28;20020;-75
2022/06/22 14:12:14;;;;;;;10.05;4.68;;;;;;;;;;5039842;28;20037;-74
2022/06/22 14:14:46;;;;;;;8.63;4.60;;;;;;;;;;5094376;28;20024;-75
2022/06/22 14:17:19;;;;;;;19.23;5.95;;;;;;;;;;5093607;28;20123;-75
2022/06/22 14:19:56;;;;;;;10.75;4.50;;;;;;;;;;5094329;28;20081;-75
2022/06/22 14:22:29;;;;;;;11.73;5.15;;;;;;;;;;5094110;28;20460;-74
2022/06/22 14:24:57;;;;;;;8.77;5.13;;;;;;;;;;5094379;28;20062;-74
2022/06/22 14:27:29;;;;;;;7.13;4.68;;;;;;;;;;5093799;28;20024;-74
2022/06/22 14:30:11;;;;;;;10.63;4.80;;;;;;;;;;5093701;28;20034;-76
2022/06/22 14:32:37;;;;;;;8.48;4.50;;;;;;;;;;5094066;28;20035;-75
2022/06/22 14:35:21;;;;;;;10.15;4.60;;;;;;;;;;5094011;28;20095;-75
2022/06/22 14:37:51;;;;;;;11.38;4.72;;;;;;;;;;5093529;28;20062;-74
2022/06/22 14:40:23;;;;;;;9.32;4.82;;;;;;;;;;5092807;28;20535;-75
2022/06/22 14:42:55;;;;;;;8.63;4.13;;;;;;;;;;5093789;28;20553;-76
2022/06/22 14:45:44;;;;;;;8.95;4.55;;;;;;;;;;5093559;28;20384;-76
2022/06/22 14:48:13;;;;;;;9.05;4.15;;;;;;;;;;5082330;28;20032;-75
2022/06/22 14:51:06;;;;;;;8.48;4.38;;;;;;;;;;5093407;28;20024;-75
2022/06/22 14:53:51;;;;;;;8.48;4.63;;;;;;;;;;5091170;28;20116;-76
2022/06/22 14:56:24;;;;;;;5.88;3.83;;;;;;;;;;5093923;28;20030;-75
2022/06/22 14:58:54;;;;;;;7.47;4.25;;;;;;;;;;5093244;28;20067;-74
2022/06/22 15:01:29;;;;;;;8.02;4.20;;;;;;;;;;5093532;28;20024;-75
2022/06/22 15:04:04;;;;;;;6.55;3.67;;;;;;;;;;5093512;28;20035;-75
2022/06/22 15:06:48;;;;;;;11.30;5.25;;;;;;;;;;5092290;28;20032;-76
2022/06/22 15:09:18;;;;;;;8.35;4.05;;;;;;;;;;5093483;28;20468;-76
2022/06/22 15:14:38;;;;;;;6.78;4.80;;;;;;;;;;5093659;28;20550;-75
2022/06/22 15:17:09;;;;;;;10.35;4.30;;;;;;;;;;5093129;28;20105;-75
2022/06/22 15:19:36;;;;;;;11.23;5.47;;;;;;;;;;5092945;28;20464;-75
2022/06/22 15:22:10;;;;;;;11.82;5.45;;;;;;;;;;5093315;28;20464;-76
2022/06/22 15:24:36;;;;;;;12.85;5.68;;;;;;;;;;5093492;28;20043;-76
2022/06/22 15:27:09;;;;;;;8.50;4.40;;;;;;;;;;5092843;28;20069;-75
2022/06/22 15:29:48;;;;;;;10.80;5.32;;;;;;;;;;5093128;28;20141;-76
2022/06/22 15:32:17;;;;;;;10.13;4.97;;;;;;;;;;5092754;28;20056;-78
2022/06/22 15:35:15;;;;;;;13.55;5.60;;;;;;;;;;5093157;28;20059;-76
2022/06/22 15:37:44;;;;;;;9.23;4.45;;;;;;;;;;5059430;28;20036;-76
2022/06/22 15:40:13;;;;;;;11.73;4.88;;;;;;;;;;5095635;28;20027;-75
2022/06/22 15:42:45;;;;;;;9.10;4.40;;;;;;;;;;5097627;28;20415;-75
2022/06/22 15:45:26;;;;;;;10.80;4.82;;;;;;;;;;5097310;28;20051;-76
2022/06/22 15:47:55;;;;;;;7.63;4.20;;;;;;;;;;5096960;28;20125;-75
2022/06/22 15:50:27;;;;;;;8.35;4.80;;;;;;;;;;5097165;28;20024;-76
2022/06/22 15:52:58;;;;;;;8.90;4.50;;;;;;;;;;5097131;28;20047;-75
2022/06/22 15:55:31;;;;;;;10.50;5.40;;;;;;;;;;5095419;28;20039;-75
2022/06/22 15:58:11;;;;;;;9.18;4.97;;;;;;;;;;5096955;28;20093;-75
2022/06/22 16:00:50;;;;;;;10.50;4.50;;;;;;;;;;5096856;28;20028;-75
2022/06/22 16:03:22;;;;;;;9.85;4.88;;;;;;;;;;5095636;28;20123;-75
2022/06/22 16:05:48;;;;;;;;;;;;;;;;;;5097202;28;20023;-74
2022/06/22 16:08:20;;;;;;;11.18;5.43;;;;;;;;;;5096353;28;20004;-74
2022/06/22 16:13:56;;;;;;;12.48;5.60;;;;;;;;;;5096890;28;20043;-74
2022/06/22 16:16:44;;;;;;;11.13;5.88;;;;;;;;;;5096216;28;20095;-74
2022/06/22 16:19:31;;;;;;;12.45;6.30;;;;;;;;;;5096614;28;20504;-74
2022/06/22 16:22:02;;;;;;;12.02;6.95;;;;;;;;;;5096153;28;20024;-74
2022/06/22 16:24:35;;;;;;;11.00;7.22;;;;;;;;;;5095298;28;20046;-76
2022/06/22 16:27:10;;;;;;;13.02;6.68;;;;;;;;;;5096557;28;20024;-75
2022/06/22 16:29:44;;;;;;;10.05;6.35;;;;;;;;;;5095999;28;20020;-75
2022/06/22 16:32:14;;;;;;;10.13;5.82;;;;;;;;;;5096364;28;20028;-76
2022/06/22 16:34:58;;;;;;;10.32;6.25;;;;;;;;;;5096565;28;20368;-76
2022/06/22 16:37:35;;;;;;;12.10;6.07;;;;;;;;;;5095881;28;20032;-75
2022/06/22 16:40:14;;;;;;;10.10;6.63;;;;;;;;;;5096169;28;20388;-75
2022/06/22 16:42:55;;;;;;;10.85;5.78;;;;;;;;;;5095781;28;20051;-75
2022/06/22 16:45:29;;;;;;;10.82;6.18;;;;;;;;;;5096057;28;20057;-75
2022/06/22 16:47:58;;;;;;;13.13;6.97;;;;;;;;;;5096110;28;20065;-75
2022/06/22 16:50:38;;;;;;;12.98;6.70;;;;;;;;;;5095138;28;20468;-75
2022/06/22 16:53:05;;;;;;;10.30;6.20;;;;;;;;;;5095989;28;20525;-75
2022/06/22 16:55:35;;;;;;;13.05;6.85;;;;;;;;;;5095937;28;20137;-75
2022/06/22 16:58:02;;;;;;;11.68;6.78;;;;;;;;;;5095427;28;20070;-74
2022/06/22 17:00:29;;;;;;;13.23;7.53;;;;;;;;;;5096370;28;20049;-75
2022/06/22 17:03:05;;;;;;;13.68;6.53;;;;;;;;;;5095687;28;20028;-75
2022/06/22 17:05:39;;;;;;;9.65;6.88;;;;;;;;;;5095442;28;20125;-76
2022/06/22 17:08:05;;;;;;;13.10;7.80;;;;;;;;;;5095760;28;20028;-75
2022/06/22 17:10:35;;;;;;;13.43;7.68;;;;;;;;;;5096039;28;20020;-76
2022/06/22 17:13:06;;;;;;;14.35;7.57;;;;;;;;;;5093992;28;20032;-76
2022/06/22 17:15:51;;;;;;;11.43;7.78;;;;;;;;;;5095828;28;20020;-76
2022/06/22 17:18:20;;;;;;;12.77;8.48;;;;;;;;;;5094860;28;20055;-76
2022/06/22 17:20:50;;;;;;;13.63;7.70;;;;;;;;;;5095521;28;20052;-76
2022/06/22 17:23:31;;;;;;;12.82;8.30;;;;;;;;;;5095541;28;20111;-76
2022/06/22 17:26:19;;;;;;;11.60;7.25;;;;;;;;;;5095164;28;20033;-75
2022/06/22 17:28:58;;;;;;;15.07;7.80;;;;;;;;;;5095671;28;20024;-75
2022/06/22 17:31:32;;;;;;;11.85;7.82;;;;;;;;;;5095743;28;20065;-76
2022/06/22 17:34:03;;;;;;;11.93;8.55;;;;;;;;;;5094816;28;20495;-75